^^
Saratoga-Weather Station Historical Data
Daily Summary for July 25, 2020 Units:  Metric    English   Both
Daily Weekly Monthly Yearly Custom
  High: Low: Average:
Temperature: 14.2 °C 8.6 °C 10.2 °C
Dew Point: 12.8 °C 6.9 °C 8.5 °C
Humidity: 92% 84% 89%
Wind Speed: 19.5km/h 0km/h 6.3km/h
Wind Gust: 29km/h - -
Wind- - WSW
Pressure: 1001.7 hPa 997.0 hPa -
Precipitation: 13.2 mm    
Historical Graphs
 
 
Tabular Data for July 25, 2020
Time Temperature Dew Point Pressure Wind Wind Speed Wind Gust Humidity Rainfall Rate (Hourly) solar
00:03 14.2 °C 12.6 °C 997.6 hPa East 3.2 km/h 4.8 km/h 90% 0.0 mm 0 W/m2
00:08 14.2 °C 12.8 °C 997.6 hPa NE 4.7 km/h 6.4 km/h 91% 0.0 mm 0 W/m2
00:13 14.2 °C 12.8 °C 997.6 hPa ENE 4.7 km/h 6.4 km/h 91% 0.0 mm 0 W/m2
00:18 14.2 °C 12.8 °C 997.6 hPa Calm   8 km/h 91% 0.0 mm 0 W/m2
00:23 14.2 °C 12.8 °C 997.6 hPa ESE 4.7 km/h 6.4 km/h 91% 0.0 mm 0 W/m2
00:28 14.1 °C 12.7 °C 998.0 hPa NW 19.5 km/h 20.9 km/h 91% 2.3 mm 0 W/m2
00:33 13.6 °C 11.8 °C 998.3 hPa WNW 11.1 km/h 17.7 km/h 89% 4.8 mm 0 W/m2
00:38 13.2 °C 11.4 °C 998.6 hPa NW 9.7 km/h 14.5 km/h 89% 5.6 mm 0 W/m2
00:43 12.8 °C 11.2 °C 998.6 hPa WNW 11.1 km/h 24.1 km/h 90% 6.1 mm 0 W/m2
00:48 12.4 °C 10.8 °C 998.6 hPa WNW 13 km/h 22.5 km/h 90% 6.1 mm 0 W/m2
00:53 12.1 °C 10.5 °C 998.6 hPa West 4.7 km/h 19.3 km/h 90% 6.1 mm 0 W/m2
00:58 11.8 °C 10.2 °C 998.6 hPa West 16.3 km/h 17.7 km/h 90% 6.1 mm 0 W/m2
01:03 11.8 °C 10.4 °C 998.6 hPa WNW 3.2 km/h 9.7 km/h 91% 6.3 mm 0 W/m2
01:08 11.7 °C 10.3 °C 998.6 hPa West 11.1 km/h 14.5 km/h 91% 6.3 mm 0 W/m2
01:13 11.7 °C 10.3 °C 998.6 hPa WNW 11.1 km/h 20.9 km/h 91% 6.3 mm 0 W/m2
01:18 11.7 °C 10.3 °C 998.6 hPa WSW 17.7 km/h 17.7 km/h 91% 6.9 mm 0 W/m2
01:23 11.6 °C 10.2 °C 998.6 hPa WNW 7.9 km/h 17.7 km/h 91% 7.1 mm 0 W/m2
01:29 11.6 °C 10.2 °C 998.6 hPa NW 11.1 km/h 12.9 km/h 91% 4.1 mm 0 W/m2
01:34 11.4 °C 10 °C 998.6 hPa WNW 3.2 km/h 16.1 km/h 91% 2.8 mm 0 W/m2
01:39 11.4 °C 10 °C 998.6 hPa WSW 6.4 km/h 9.7 km/h 91% 2.3 mm 0 W/m2
01:44 11.3 °C 9.9 °C 998.6 hPa WNW 4.7 km/h 11.3 km/h 91% 1.8 mm 0 W/m2
01:49 11.3 °C 9.9 °C 998.6 hPa WNW 4.7 km/h 16.1 km/h 91% 1.5 mm 0 W/m2
01:54 11.2 °C 9.8 °C 998.6 hPa WSW 1.4 km/h 8 km/h 91% 1.5 mm 0 W/m2
01:59 11.2 °C 9.8 °C 998.6 hPa WSW 1.4 km/h 16.1 km/h 91% 1.5 mm 0 W/m2
02:04 11.2 °C 9.8 °C 998.6 hPa WSW 3.2 km/h 3.2 km/h 91% 1.5 mm 0 W/m2
02:09 11.1 °C 9.7 °C 998.6 hPa SSE 1.4 km/h 6.4 km/h 91% 1.5 mm 0 W/m2
02:14 11.1 °C 9.7 °C 998.6 hPa East 1.4 km/h 3.2 km/h 91% 1.5 mm 0 W/m2
02:19 11.1 °C 9.8 °C 998.6 hPa Calm   4.8 km/h 92% 1.0 mm 0 W/m2
02:24 11.1 °C 9.8 °C 998.6 hPa Calm   3.2 km/h 92% 0.5 mm 0 W/m2
02:29 11 °C 9.8 °C 998.6 hPa East 1.4 km/h 3.2 km/h 92% 0.2 mm 0 W/m2
02:34 10.9 °C 9.7 °C 998.6 hPa WSW 3.2 km/h 4.8 km/h 92% 0.0 mm 0 W/m2
02:39 10.9 °C 9.7 °C 999.0 hPa Calm   1.6 km/h 92% 0.0 mm 0 W/m2
02:44 10.9 °C 9.7 °C 998.6 hPa West 1.4 km/h 4.8 km/h 92% 0.0 mm 0 W/m2
02:49 10.9 °C 9.7 °C 998.6 hPa SSW 1.4 km/h 3.2 km/h 92% 0.0 mm 0 W/m2
02:54 10.9 °C 9.7 °C 998.3 hPa East 3.2 km/h 3.2 km/h 92% 0.0 mm 0 W/m2
02:59 10.9 °C 9.7 °C 998.3 hPa Calm   1.6 km/h 92% 0.0 mm 0 W/m2
03:04 10.9 °C 9.7 °C 998.6 hPa NW 3.2 km/h 4.8 km/h 92% 0.0 mm 0 W/m2
03:09 10.9 °C 9.7 °C 998.6 hPa NE 4.7 km/h 6.4 km/h 92% 0.0 mm 0 W/m2
03:14 10.9 °C 9.7 °C 998.3 hPa West 6.4 km/h 24.1 km/h 92% 0.0 mm 0 W/m2
03:19 10.9 °C 9.5 °C 999.0 hPa WSW 13 km/h 12.9 km/h 91% 0.0 mm 0 W/m2
03:24 11 °C 9.6 °C 998.6 hPa NW 4.7 km/h 22.5 km/h 91% 0.0 mm 0 W/m2
03:29 11 °C 9.6 °C 998.6 hPa WNW 4.7 km/h 6.4 km/h 91% 0.0 mm 0 W/m2
03:34 11.1 °C 9.7 °C 998.6 hPa West 1.4 km/h 11.3 km/h 91% 0.0 mm 0 W/m2
03:39 11.1 °C 9.7 °C 998.6 hPa West 11.1 km/h 11.3 km/h 91% 0.0 mm 0 W/m2
03:44 11 °C 9.4 °C 998.6 hPa SW 3.2 km/h 6.4 km/h 90% 0.0 mm 0 W/m2
03:49 10.9 °C 9.5 °C 998.6 hPa NNE 12.9 km/h 12.9 km/h 91% 0.0 mm 0 W/m2
03:54 10.8 °C 9.2 °C 998.6 hPa SSW 3.2 km/h 11.3 km/h 90% 0.0 mm 0 W/m2
03:59 10.8 °C 9.1 °C 998.6 hPa West 9.7 km/h 9.7 km/h 89% 0.0 mm 0 W/m2
04:04 10.7 °C 9 °C 998.6 hPa NW 4.7 km/h 4.8 km/h 89% 0.0 mm 0 W/m2
04:09 10.7 °C 9 °C 999.0 hPa NW 3.2 km/h 3.2 km/h 89% 0.0 mm 0 W/m2
04:14 10.6 °C 8.7 °C 999.0 hPa WSW 11.1 km/h 11.3 km/h 88% 0.0 mm 0 W/m2
04:20 10.4 °C 8.7 °C 999.0 hPa NNW 4.7 km/h 6.4 km/h 89% 0.0 mm 0 W/m2
04:25 10.3 °C 8.6 °C 999.0 hPa WSW 1.4 km/h 3.2 km/h 89% 0.0 mm 0 W/m2
04:30 10.3 °C 8.6 °C 998.6 hPa North 1.4 km/h 1.6 km/h 89% 0.0 mm 0 W/m2
04:35 10.2 °C 8.5 °C 999.0 hPa WNW 3.2 km/h 3.2 km/h 89% 0.0 mm 0 W/m2
04:40 10.1 °C 8.4 °C 999.3 hPa NNW 3.2 km/h 9.7 km/h 89% 0.0 mm 0 W/m2
04:45 10.1 °C 8.2 °C 999.0 hPa NW 1.4 km/h 8 km/h 88% 0.0 mm 0 W/m2
04:50 10 °C 8.1 °C 999.0 hPa SW 6.4 km/h 16.1 km/h 88% 0.0 mm 0 W/m2
04:55 10 °C 8.1 °C 999.0 hPa NW 1.4 km/h 14.5 km/h 88% 0.0 mm 0 W/m2
05:00 10 °C 8.1 °C 999.0 hPa NW 6.4 km/h 16.1 km/h 88% 0.2 mm 0 W/m2
05:05 10 °C 8.1 °C 998.6 hPa WNW 4.7 km/h 24.1 km/h 88% 0.2 mm 0 W/m2
05:10 9.9 °C 8 °C 999.0 hPa NW 3.2 km/h 11.3 km/h 88% 0.2 mm 0 W/m2
05:15 9.9 °C 8 °C 998.6 hPa NW 6.4 km/h 24.1 km/h 88% 0.2 mm 0 W/m2
05:20 9.9 °C 8 °C 998.6 hPa WNW 1.4 km/h 8 km/h 88% 0.2 mm 0 W/m2
05:25 9.9 °C 8 °C 998.3 hPa Calm   8 km/h 88% 0.2 mm 0 W/m2
05:30 9.8 °C 7.9 °C 998.6 hPa NW 4.7 km/h 8 km/h 88% 0.2 mm 0 W/m2
05:35 9.8 °C 7.9 °C 998.6 hPa NW 13 km/h 16.1 km/h 88% 0.2 mm 0 W/m2
05:40 9.7 °C 7.8 °C 998.6 hPa NNW 7.9 km/h 14.5 km/h 88% 0.2 mm 0 W/m2
05:45 9.7 °C 7.6 °C 999.0 hPa NW 4.7 km/h 16.1 km/h 87% 0.2 mm 0 W/m2
05:50 9.7 °C 7.6 °C 998.6 hPa WNW 3.2 km/h 11.3 km/h 87% 0.2 mm 0 W/m2
05:55 9.6 °C 7.5 °C 998.3 hPa WNW 6.4 km/h 11.3 km/h 87% 0.2 mm 0 W/m2
06:00 9.5 °C 7.4 °C 998.6 hPa NW 3.2 km/h 11.3 km/h 87% 0.0 mm 0 W/m2
06:05 9.4 °C 7.3 °C 998.6 hPa NNW 6.4 km/h 9.7 km/h 87% 0.0 mm 0 W/m2
06:10 9.3 °C 7.4 °C 998.3 hPa NW 4.7 km/h 9.7 km/h 88% 0.0 mm 0 W/m2
06:15 9.3 °C 7.4 °C 998.3 hPa NW 4.7 km/h 9.7 km/h 88% 0.0 mm 0 W/m2
06:20 9.3 °C 7.4 °C 998.3 hPa West 3.2 km/h 9.7 km/h 88% 0.0 mm 0 W/m2
06:25 9.2 °C 7.3 °C 998.3 hPa ESE 1.4 km/h 4.8 km/h 88% 0.0 mm 0 W/m2
06:30 9.2 °C 7.3 °C 998.3 hPa NNE 1.4 km/h 6.4 km/h 88% 0.0 mm 0 W/m2
06:35 9.1 °C 7.2 °C 998.3 hPa East 1.4 km/h 3.2 km/h 88% 0.0 mm 0 W/m2
06:40 9.1 °C 7.2 °C 998.3 hPa ENE 1.4 km/h 8 km/h 88% 0.0 mm 0 W/m2
06:45 8.9 °C 7 °C 998.0 hPa NNW 3.2 km/h 3.2 km/h 88% 0.0 mm 0 W/m2
06:50 8.8 °C 7.1 °C 998.0 hPa ENE 3.2 km/h 3.2 km/h 89% 0.0 mm 0 W/m2
06:55 8.8 °C 7.1 °C 998.0 hPa North 4.7 km/h 4.8 km/h 89% 0.0 mm 0 W/m2
07:01 8.7 °C 7 °C 998.3 hPa East 6.4 km/h 8 km/h 89% 0.0 mm 0 W/m2
07:06 8.7 °C 7.2 °C 998.3 hPa NE 6.4 km/h 6.4 km/h 90% 0.0 mm 0 W/m2
07:11 8.7 °C 7.2 °C 998.3 hPa NE 6.4 km/h 8 km/h 90% 0.0 mm 0 W/m2
07:16 8.7 °C 7.2 °C 998.3 hPa East 1.4 km/h 4.8 km/h 90% 0.0 mm 0 W/m2
07:21 8.7 °C 7.2 °C 998.0 hPa ESE 1.4 km/h 3.2 km/h 90% 0.0 mm 0 W/m2
07:26 8.6 °C 7.1 °C 998.0 hPa East 3.2 km/h 4.8 km/h 90% 0.0 mm 0 W/m2
07:31 8.6 °C 7.1 °C 998.3 hPa East 3.2 km/h 9.7 km/h 90% 0.0 mm 0 W/m2
07:36 8.6 °C 7.1 °C 998.3 hPa NNE 1.4 km/h 3.2 km/h 90% 0.0 mm 0 W/m2
07:41 8.7 °C 7.2 °C 998.3 hPa Calm   9.7 km/h 90% 0.0 mm 5 W/m2
07:46 8.8 °C 7.2 °C 998.3 hPa NE 1.4 km/h 3.2 km/h 90% 0.0 mm 9 W/m2
07:56 8.8 °C 7.2 °C 998.3 hPa NW 1.4 km/h 3.2 km/h 90% 0.0 mm 19 W/m2
08:01 8.8 °C 7.2 °C 998.3 hPa North 3.2 km/h 6.4 km/h 90% 0.0 mm 16 W/m2
08:06 8.9 °C 7.3 °C 998.3 hPa WNW 4.7 km/h 11.3 km/h 90% 0.0 mm 16 W/m2
08:11 9.1 °C 7.4 °C 998.3 hPa South 3.2 km/h 6.4 km/h 89% 0.0 mm 18 W/m2
08:16 9.2 °C 7.5 °C 998.3 hPa ENE 6.4 km/h 9.7 km/h 89% 0.0 mm 23 W/m2
08:21 9.2 °C 7.3 °C 998.3 hPa NW 1.4 km/h 4.8 km/h 88% 0.0 mm 18 W/m2
08:26 9.3 °C 7.4 °C 998.3 hPa North 3.2 km/h 9.7 km/h 88% 0.0 mm 19 W/m2
08:31 9.3 °C 7.4 °C 998.3 hPa WNW 6.4 km/h 12.9 km/h 88% 0.0 mm 14 W/m2
08:36 9.3 °C 7.2 °C 998.3 hPa NE 1.4 km/h 8 km/h 87% 0.0 mm 11 W/m2
08:41 9.4 °C 7.3 °C 998.0 hPa NE 3.2 km/h 4.8 km/h 87% 0.0 mm 14 W/m2
08:46 9.4 °C 7.3 °C 998.0 hPa SSE 1.4 km/h 3.2 km/h 87% 0.0 mm 14 W/m2
08:51 9.4 °C 7.3 °C 998.3 hPa North 6.4 km/h 6.4 km/h 87% 0.0 mm 21 W/m2
08:56 9.5 °C 7.4 °C 998.3 hPa ENE 4.7 km/h 4.8 km/h 87% 0.0 mm 21 W/m2
09:01 9.5 °C 7.6 °C 998.3 hPa NW 4.7 km/h 11.3 km/h 88% 0.0 mm 21 W/m2
09:06 9.4 °C 7.5 °C 998.6 hPa Calm   4.8 km/h 88% 0.0 mm 12 W/m2
09:11 9.4 °C 7.5 °C 998.3 hPa North 4.7 km/h 6.4 km/h 88% 0.0 mm 23 W/m2
09:16 9.4 °C 7.5 °C 998.6 hPa NE 3.2 km/h 4.8 km/h 88% 0.0 mm 18 W/m2
09:21 9.4 °C 7.7 °C 998.3 hPa North 3.2 km/h 3.2 km/h 89% 0.0 mm 21 W/m2
09:26 9.4 °C 7.8 °C 998.3 hPa Calm   4.8 km/h 90% 0.2 mm 28 W/m2
09:31 9.4 °C 7.7 °C 998.3 hPa NNW 3.2 km/h 8 km/h 89% 0.2 mm 37 W/m2
09:36 9.4 °C 7.7 °C 998.6 hPa NE 3.2 km/h 6.4 km/h 89% 0.2 mm 26 W/m2
09:41 9.5 °C 7.8 °C 998.6 hPa NNW 4.7 km/h 9.7 km/h 89% 0.2 mm 30 W/m2
09:46 9.6 °C 7.9 °C 998.6 hPa East 3.2 km/h 6.4 km/h 89% 0.2 mm 33 W/m2
09:51 9.5 °C 7.8 °C 998.6 hPa Calm   9.7 km/h 89% 0.2 mm 21 W/m2
09:56 9.5 °C 7.8 °C 998.6 hPa North 1.4 km/h 4.8 km/h 89% 0.2 mm 91 W/m2
10:01 9.5 °C 7.9 °C 998.6 hPa NNE 3.2 km/h 4.8 km/h 90% 0.2 mm 139 W/m2
10:06 9.6 °C 8.2 °C 998.6 hPa NNE 4.7 km/h 8 km/h 91% 0.2 mm 116 W/m2
10:11 9.7 °C 8.1 °C 998.6 hPa North 4.7 km/h 6.4 km/h 90% 0.2 mm 181 W/m2
10:16 9.8 °C 8.2 °C 998.3 hPa NW 7.9 km/h 11.3 km/h 90% 0.2 mm 200 W/m2
10:21 9.9 °C 8.3 °C 998.3 hPa NNE 4.7 km/h 9.7 km/h 90% 0.2 mm 118 W/m2
10:26 10 °C 8.3 °C 998.3 hPa NE 4.7 km/h 8 km/h 89% 0.0 mm 109 W/m2
10:31 10 °C 8.4 °C 998.6 hPa West 4.7 km/h 6.4 km/h 90% 0.0 mm 193 W/m2
10:36 10.1 °C 8.5 °C 998.3 hPa ENE 11.1 km/h 11.3 km/h 90% 0.0 mm 232 W/m2
10:41 10.1 °C 8.5 °C 998.3 hPa WNW 6.4 km/h 9.7 km/h 90% 0.0 mm 111 W/m2
10:46 10.1 °C 8.4 °C 998.6 hPa NNE 6.4 km/h 6.4 km/h 89% 0.0 mm 72 W/m2
10:51 10.2 °C 8.6 °C 998.6 hPa ENE 7.9 km/h 11.3 km/h 90% 0.2 mm 113 W/m2
10:56 10.2 °C 8.6 °C 998.6 hPa West 4.7 km/h 6.4 km/h 90% 0.2 mm 128 W/m2
11:01 10.1 °C 8.4 °C 998.6 hPa North 11.3 km/h 11.3 km/h 89% 0.2 mm 116 W/m2
11:06 10.2 °C 8.6 °C 998.3 hPa ENE 1.4 km/h 3.2 km/h 90% 0.2 mm 88 W/m2
11:11 10.2 °C 8.6 °C 998.3 hPa Calm   12.9 km/h 90% 0.2 mm 93 W/m2
11:16 10.1 °C 8.4 °C 998.3 hPa NE 1.4 km/h 4.8 km/h 89% 0.2 mm 69 W/m2
11:21 10.2 °C 8.6 °C 998.6 hPa NNW 1.4 km/h 12.9 km/h 90% 0.2 mm 58 W/m2
11:26 10.2 °C 8.6 °C 998.6 hPa East 1.4 km/h 4.8 km/h 90% 0.2 mm 67 W/m2
11:31 10.2 °C 8.6 °C 998.3 hPa NW 3.2 km/h 4.8 km/h 90% 0.2 mm 88 W/m2
11:36 10.3 °C 8.6 °C 998.6 hPa NNW 3.2 km/h 3.2 km/h 89% 0.2 mm 125 W/m2
11:41 10.3 °C 8.6 °C 998.6 hPa Calm   4.8 km/h 89% 0.2 mm 134 W/m2
11:46 10.6 °C 9 °C 998.3 hPa NNE 1.4 km/h 4.8 km/h 90% 0.2 mm 202 W/m2
11:51 10.8 °C 9.1 °C 998.3 hPa ENE 4.7 km/h 6.4 km/h 89% 0.0 mm 207 W/m2
11:56 10.9 °C 9 °C 998.3 hPa NW 1.4 km/h 8 km/h 88% 0.0 mm 241 W/m2
12:01 10.9 °C 8.8 °C 998.3 hPa NW 3.2 km/h 12.9 km/h 87% 0.0 mm 376 W/m2
12:06 11.1 °C 9 °C 998.3 hPa NE 4.7 km/h 6.4 km/h 87% 0.0 mm 100 W/m2
12:11 11.1 °C 9 °C 998.0 hPa NW 4.7 km/h 6.4 km/h 87% 0.2 mm 137 W/m2
12:16 10.9 °C 8.8 °C 998.0 hPa NNW 4.7 km/h 4.8 km/h 87% 0.5 mm 134 W/m2
12:22 10.7 °C 8.6 °C 998.0 hPa WNW 3.2 km/h 8 km/h 87% 0.5 mm 130 W/m2
12:27 10.6 °C 8.7 °C 998.0 hPa NNE 1.4 km/h 4.8 km/h 88% 0.8 mm 97 W/m2
12:32 10.4 °C 8.5 °C 998.0 hPa NE 3.2 km/h 9.7 km/h 88% 1.3 mm 276 W/m2
12:37 10.5 °C 8.8 °C 997.6 hPa ESE 4.7 km/h 6.4 km/h 89% 1.3 mm 134 W/m2
12:42 10.5 °C 8.9 °C 997.6 hPa NNW 3.2 km/h 9.7 km/h 90% 1.3 mm 172 W/m2
12:47 10.4 °C 8.8 °C 997.6 hPa Calm   6.4 km/h 90% 1.3 mm 234 W/m2
12:52 10.6 °C 9 °C 997.6 hPa NW 3.2 km/h 9.7 km/h 90% 1.3 mm 135 W/m2
12:57 10.7 °C 9.1 °C 997.6 hPa North 6.4 km/h 6.4 km/h 90% 1.3 mm 522 W/m2
13:02 10.8 °C 9.1 °C 997.6 hPa NW 4.7 km/h 8 km/h 89% 1.3 mm 387 W/m2
13:07 10.9 °C 9.2 °C 997.3 hPa NW 4.7 km/h 12.9 km/h 89% 1.3 mm 619 W/m2
13:12 11.1 °C 9.4 °C 997.3 hPa WSW 6.4 km/h 9.7 km/h 89% 0.8 mm 432 W/m2
13:17 11.2 °C 9.5 °C 997.3 hPa North 3.2 km/h 6.4 km/h 89% 0.8 mm 195 W/m2
13:22 11.2 °C 9.5 °C 997.6 hPa West 4.7 km/h 9.7 km/h 89% 0.8 mm 353 W/m2
13:27 11.2 °C 9.5 °C 997.3 hPa NW 9.7 km/h 12.9 km/h 89% 0.5 mm 264 W/m2
13:32 11.2 °C 9.3 °C 997.3 hPa WSW 4.7 km/h 14.5 km/h 88% 0.2 mm 251 W/m2
13:37 11.2 °C 9.3 °C 997.3 hPa SW 3.2 km/h 6.4 km/h 88% 0.2 mm 141 W/m2
13:42 11.1 °C 9 °C 997.3 hPa West 6.4 km/h 12.9 km/h 87% 0.2 mm 135 W/m2
13:47 10.9 °C 9 °C 997.3 hPa West 6.4 km/h 11.3 km/h 88% 0.2 mm 93 W/m2
13:52 10.8 °C 8.9 °C 997.0 hPa NW 3.2 km/h 4.8 km/h 88% 0.5 mm 134 W/m2
13:57 11.1 °C 9.4 °C 997.0 hPa WNW 1.4 km/h 8 km/h 89% 0.5 mm 733 W/m2
14:02 11.3 °C 9.4 °C 997.0 hPa WNW 3.2 km/h 6.4 km/h 88% 0.5 mm 202 W/m2
14:07 11.4 °C 9.1 °C 997.3 hPa WNW 11.1 km/h 14.5 km/h 86% 0.5 mm 109 W/m2
14:12 11.2 °C 8.8 °C 997.6 hPa WNW 11.1 km/h 19.3 km/h 85% 0.5 mm 178 W/m2
14:17 10.7 °C 8.1 °C 997.6 hPa West 6.4 km/h 22.5 km/h 84% 0.5 mm 121 W/m2
14:22 10.2 °C 8 °C 997.6 hPa West 3.2 km/h 16.1 km/h 86% 0.5 mm 93 W/m2
14:27 9.9 °C 7.8 °C 997.6 hPa WNW 3.2 km/h 11.3 km/h 87% 1.0 mm 156 W/m2
14:32 9.7 °C 7.8 °C 997.6 hPa West 6.4 km/h 11.3 km/h 88% 1.3 mm 130 W/m2
14:37 9.7 °C 8 °C 997.6 hPa WSW 4.7 km/h 11.3 km/h 89% 1.5 mm 394 W/m2
14:42 9.9 °C 8.2 °C 997.6 hPa West 6.4 km/h 11.3 km/h 89% 1.5 mm 274 W/m2
14:47 10 °C 8.3 °C 997.6 hPa NNE 6.4 km/h 9.7 km/h 89% 1.3 mm 86 W/m2
14:52 10 °C 8.3 °C 997.6 hPa West 3.2 km/h 8 km/h 89% 1.3 mm 113 W/m2
14:57 9.9 °C 8 °C 997.6 hPa WSW 4.7 km/h 11.3 km/h 88% 1.3 mm 77 W/m2
15:02 9.9 °C 8.2 °C 998.0 hPa West 4.7 km/h 20.9 km/h 89% 1.3 mm 272 W/m2
15:07 10 °C 8.3 °C 997.6 hPa West 1.4 km/h 12.9 km/h 89% 1.3 mm 452 W/m2
15:12 10.1 °C 8.4 °C 998.0 hPa West 4.7 km/h 16.1 km/h 89% 1.3 mm 213 W/m2
15:17 10.2 °C 8.3 °C 998.0 hPa WSW 4.7 km/h 14.5 km/h 88% 1.0 mm 137 W/m2
15:22 10.3 °C 8.2 °C 998.0 hPa NW 4.7 km/h 16.1 km/h 87% 0.8 mm 121 W/m2
15:27 10.3 °C 8.2 °C 998.0 hPa West 3.2 km/h 19.3 km/h 87% 0.5 mm 153 W/m2
15:32 10.4 °C 8.3 °C 998.0 hPa WSW 7.9 km/h 9.7 km/h 87% 0.2 mm 176 W/m2
15:37 10.3 °C 8.1 °C 998.0 hPa West 11.1 km/h 12.9 km/h 86% 0.0 mm 181 W/m2
15:42 10.4 °C 8.2 °C 998.0 hPa WNW 13 km/h 19.3 km/h 86% 0.0 mm 144 W/m2
15:47 10.4 °C 8.2 °C 998.0 hPa SW 1.4 km/h 16.1 km/h 86% 0.0 mm 199 W/m2
15:52 10.4 °C 8.2 °C 998.0 hPa WNW 4.7 km/h 19.3 km/h 86% 0.0 mm 130 W/m2
15:57 10.4 °C 8.2 °C 998.0 hPa West 13 km/h 17.7 km/h 86% 0.0 mm 156 W/m2
16:02 10.4 °C 8.3 °C 998.0 hPa WSW 4.7 km/h 19.3 km/h 87% 0.0 mm 229 W/m2
16:07 10.6 °C 8.5 °C 998.0 hPa West 13 km/h 20.9 km/h 87% 0.0 mm 123 W/m2
16:12 10.5 °C 8.3 °C 998.3 hPa West 11.1 km/h 17.7 km/h 86% 0.0 mm 84 W/m2
16:17 10.4 °C 8.2 °C 998.3 hPa WSW 7.9 km/h 16.1 km/h 86% 0.0 mm 176 W/m2
16:22 10.4 °C 8.2 °C 998.6 hPa West 9.7 km/h 20.9 km/h 86% 0.0 mm 111 W/m2
16:27 10.4 °C 8.2 °C 998.3 hPa West 11.1 km/h 29 km/h 86% 0.0 mm 244 W/m2
16:32 10.4 °C 8.2 °C 998.6 hPa West 11.1 km/h 22.5 km/h 86% 0.0 mm 281 W/m2
16:37 10.6 °C 8.5 °C 998.6 hPa WNW 6.4 km/h 12.9 km/h 87% 0.0 mm 278 W/m2
16:42 10.8 °C 8.6 °C 998.6 hPa WSW 13 km/h 22.5 km/h 86% 0.0 mm 176 W/m2
16:47 10.7 °C 8.5 °C 999.0 hPa NW 11.1 km/h 11.3 km/h 86% 0.0 mm 118 W/m2
16:52 10.7 °C 8.5 °C 998.6 hPa NW 7.9 km/h 16.1 km/h 86% 0.0 mm 109 W/m2
16:57 10.6 °C 8.4 °C 998.6 hPa SW 6.4 km/h 14.5 km/h 86% 0.0 mm 77 W/m2
17:02 10.6 °C 8.4 °C 998.6 hPa West 9.7 km/h 16.1 km/h 86% 0.0 mm 56 W/m2
17:07 10.6 °C 8.5 °C 998.6 hPa WSW 6.4 km/h 11.3 km/h 87% 0.0 mm 76 W/m2
17:12 10.6 °C 8.5 °C 999.0 hPa NW 3.2 km/h 11.3 km/h 87% 0.0 mm 84 W/m2
17:17 10.6 °C 8.5 °C 999.0 hPa WNW 7.9 km/h 12.9 km/h 87% 0.0 mm 56 W/m2
17:22 10.6 °C 8.4 °C 999.0 hPa WNW 6.4 km/h 19.3 km/h 86% 0.0 mm 44 W/m2
17:27 10.6 °C 8.4 °C 999.0 hPa West 11.1 km/h 17.7 km/h 86% 0.0 mm 62 W/m2
17:32 10.7 °C 8.3 °C 999.0 hPa West 11.1 km/h 20.9 km/h 85% 0.0 mm 65 W/m2
17:37 10.7 °C 8.3 °C 999.3 hPa NW 13 km/h 14.5 km/h 85% 0.0 mm 49 W/m2
17:42 10.7 °C 8.3 °C 999.0 hPa WSW 6.4 km/h 20.9 km/h 85% 0.0 mm 37 W/m2
17:47 10.8 °C 8.4 °C 999.3 hPa NNW 6.4 km/h 11.3 km/h 85% 0.0 mm 76 W/m2
17:52 10.8 °C 8.4 °C 999.3 hPa SW 6.4 km/h 14.5 km/h 85% 0.0 mm 40 W/m2
17:57 10.8 °C 8.4 °C 999.3 hPa WNW 11.1 km/h 19.3 km/h 85% 0.0 mm 33 W/m2
18:02 10.8 °C 8.4 °C 999.3 hPa West 4.7 km/h 17.7 km/h 85% 0.0 mm 35 W/m2
18:07 10.8 °C 8.4 °C 999.3 hPa NW 9.7 km/h 14.5 km/h 85% 0.0 mm 19 W/m2
18:12 10.8 °C 8.4 °C 999.7 hPa West 9.7 km/h 16.1 km/h 85% 0.0 mm 12 W/m2
18:17 10.8 °C 8.4 °C 999.3 hPa West 9.7 km/h 17.7 km/h 85% 0.0 mm 32 W/m2
18:22 10.7 °C 8.5 °C 999.7 hPa West 9.7 km/h 16.1 km/h 86% 0.0 mm 21 W/m2
18:27 10.6 °C 8.5 °C 999.7 hPa WSW 13 km/h 17.7 km/h 87% 0.0 mm 12 W/m2
18:32 10.3 °C 8.4 °C 999.7 hPa WNW 16.3 km/h 19.3 km/h 88% 0.2 mm 12 W/m2
18:37 10.2 °C 8.5 °C 999.7 hPa West 4.7 km/h 17.7 km/h 89% 0.2 mm 32 W/m2
18:42 10.1 °C 8.5 °C 1000.0 hPa SW 13 km/h 20.9 km/h 90% 0.5 mm 21 W/m2
18:47 9.9 °C 8.3 °C 1000.0 hPa West 14.3 km/h 17.7 km/h 90% 0.5 mm 16 W/m2
18:52 9.9 °C 8.3 °C 1000.0 hPa West 9.7 km/h 20.9 km/h 90% 0.5 mm 16 W/m2
18:57 9.8 °C 8.4 °C 1000.0 hPa WSW 7.9 km/h 16.1 km/h 91% 0.8 mm 11 W/m2
19:02 9.8 °C 8.4 °C 1000.0 hPa West 4.7 km/h 12.9 km/h 91% 1.0 mm 7 W/m2
19:07 9.7 °C 8.3 °C 1000.0 hPa WSW 13 km/h 14.5 km/h 91% 1.3 mm 0 W/m2
19:12 9.7 °C 8.3 °C 1000.0 hPa West 9.7 km/h 16.1 km/h 91% 1.5 mm 5 W/m2
19:17 9.7 °C 8.3 °C 1000.0 hPa WNW 11.1 km/h 19.3 km/h 91% 1.8 mm 0 W/m2
19:22 9.6 °C 8.4 °C 1000.0 hPa NW 19.5 km/h 22.5 km/h 92% 1.8 mm 0 W/m2
19:28 9.7 °C 8.5 °C 1000.0 hPa WNW 9.7 km/h 14.5 km/h 92% 1.8 mm 0 W/m2
19:38 9.7 °C 8.5 °C 1000.3 hPa NW 13 km/h 12.9 km/h 92% 1.5 mm 0 W/m2
19:43 9.7 °C 8.5 °C 1000.3 hPa WNW 7.9 km/h 12.9 km/h 92% 1.5 mm 0 W/m2
19:48 9.7 °C 8.3 °C 1000.3 hPa SW 9.7 km/h 20.9 km/h 91% 1.3 mm 0 W/m2
19:53 9.7 °C 8.3 °C 1000.3 hPa WSW 7.9 km/h 25.7 km/h 91% 1.3 mm 0 W/m2
20:03 9.8 °C 8.4 °C 1000.7 hPa West 14.3 km/h 25.7 km/h 91% 0.8 mm 0 W/m2
20:08 9.8 °C 8.4 °C 1000.7 hPa WSW 6.4 km/h 16.1 km/h 91% 0.5 mm 0 W/m2
20:13 9.8 °C 8.4 °C 1000.7 hPa WNW 14.3 km/h 19.3 km/h 91% 0.2 mm 0 W/m2
20:18 9.7 °C 8.3 °C 1000.7 hPa WSW 9.7 km/h 20.9 km/h 91% 0.0 mm 0 W/m2
20:23 9.7 °C 8.3 °C 1000.7 hPa West 3.2 km/h 12.9 km/h 91% 0.0 mm 0 W/m2
20:28 9.8 °C 8.4 °C 1001.0 hPa WNW 19.5 km/h 20.9 km/h 91% 0.0 mm 0 W/m2
20:33 9.7 °C 8.1 °C 1001.0 hPa WSW 4.7 km/h 20.9 km/h 90% 0.2 mm 0 W/m2
20:38 9.6 °C 8.2 °C 1001.0 hPa West 6.4 km/h 14.5 km/h 91% 0.2 mm 0 W/m2
20:43 9.5 °C 8.1 °C 1001.0 hPa WNW 16.3 km/h 24.1 km/h 91% 0.2 mm 0 W/m2
20:48 9.5 °C 7.9 °C 1001.0 hPa West 11.1 km/h 17.7 km/h 90% 0.2 mm 0 W/m2
20:53 9.6 °C 8 °C 1001.0 hPa NNW 6.4 km/h 24.1 km/h 90% 0.2 mm 0 W/m2
20:58 9.6 °C 8 °C 1001.0 hPa West 9.7 km/h 11.3 km/h 90% 0.2 mm 0 W/m2
21:03 9.5 °C 7.9 °C 1001.0 hPa NW 7.9 km/h 17.7 km/h 90% 0.2 mm 0 W/m2
21:08 9.6 °C 7.9 °C 1001.0 hPa WNW 19.5 km/h 19.3 km/h 89% 0.2 mm 0 W/m2
21:13 9.6 °C 7.9 °C 1001.4 hPa West 6.4 km/h 16.1 km/h 89% 0.2 mm 0 W/m2
21:18 9.6 °C 7.9 °C 1001.4 hPa WSW 9.7 km/h 16.1 km/h 89% 0.2 mm 0 W/m2
21:23 9.6 °C 7.9 °C 1001.4 hPa West 4.7 km/h 12.9 km/h 89% 0.2 mm 0 W/m2
21:28 9.6 °C 7.9 °C 1001.4 hPa West 13 km/h 16.1 km/h 89% 0.2 mm 0 W/m2
21:33 9.6 °C 7.9 °C 1001.4 hPa SW 6.4 km/h 12.9 km/h 89% 0.0 mm 0 W/m2
21:38 9.5 °C 7.8 °C 1001.4 hPa WNW 6.4 km/h 16.1 km/h 89% 0.0 mm 0 W/m2
21:43 9.5 °C 7.8 °C 1001.4 hPa West 4.7 km/h 11.3 km/h 89% 0.0 mm 0 W/m2
21:48 9.5 °C 7.8 °C 1001.7 hPa WSW 9.7 km/h 19.3 km/h 89% 0.0 mm 0 W/m2
21:53 9.5 °C 7.8 °C 1001.4 hPa West 9.7 km/h 11.3 km/h 89% 0.0 mm 0 W/m2
21:58 9.4 °C 7.7 °C 1001.7 hPa NW 9.7 km/h 16.1 km/h 89% 0.0 mm 0 W/m2
22:03 9.4 °C 7.5 °C 1001.7 hPa West 11.1 km/h 11.3 km/h 88% 0.0 mm 0 W/m2
22:08 9.4 °C 7.5 °C 1001.7 hPa WSW 9.7 km/h 12.9 km/h 88% 0.0 mm 0 W/m2
22:13 9.4 °C 7.5 °C 1001.7 hPa WNW 9.7 km/h 16.1 km/h 88% 0.0 mm 0 W/m2
22:18 9.5 °C 7.4 °C 1001.7 hPa WNW 16.3 km/h 16.1 km/h 87% 0.0 mm 0 W/m2
22:23 9.4 °C 7.3 °C 1001.7 hPa WNW 13 km/h 12.9 km/h 87% 0.0 mm 0 W/m2
22:28 9.4 °C 7.3 °C 1001.7 hPa West 13 km/h 12.9 km/h 87% 0.0 mm 0 W/m2
22:33 9.3 °C 7.4 °C 1001.7 hPa WNW 3.2 km/h 12.9 km/h 88% 0.0 mm 0 W/m2
22:38 9.3 °C 7.2 °C 1001.7 hPa SW 7.9 km/h 19.3 km/h 87% 0.0 mm 0 W/m2
22:43 9.3 °C 7.2 °C 1001.7 hPa NW 7.9 km/h 16.1 km/h 87% 0.0 mm 0 W/m2
22:48 9.3 °C 7.2 °C 1001.7 hPa WSW 6.4 km/h 14.5 km/h 87% 0.0 mm 0 W/m2
22:53 9.3 °C 7.2 °C 1001.7 hPa West 9.7 km/h 17.7 km/h 87% 0.0 mm 0 W/m2
22:58 9.4 °C 7.2 °C 1001.7 hPa WSW 6.4 km/h 19.3 km/h 86% 0.0 mm 0 W/m2
23:03 9.4 °C 7.2 °C 1001.7 hPa WNW 7.9 km/h 11.3 km/h 86% 0.0 mm 0 W/m2
23:08 9.4 °C 7.2 °C 1001.7 hPa West 9.7 km/h 19.3 km/h 86% 0.0 mm 0 W/m2
23:13 9.4 °C 7 °C 1001.7 hPa NW 7.9 km/h 16.1 km/h 85% 0.0 mm 0 W/m2
23:18 9.5 °C 7.1 °C 1001.7 hPa WNW 13 km/h 22.5 km/h 85% 0.0 mm 0 W/m2
23:23 9.5 °C 7.1 °C 1001.7 hPa West 11.1 km/h 19.3 km/h 85% 0.0 mm 0 W/m2
23:28 9.5 °C 7.1 °C 1001.7 hPa West 9.7 km/h 22.5 km/h 85% 0.0 mm 0 W/m2
23:33 9.5 °C 6.9 °C 1001.7 hPa NW 6.4 km/h 17.7 km/h 84% 0.0 mm 0 W/m2
23:38 9.5 °C 6.9 °C 1001.7 hPa West 17.7 km/h 22.5 km/h 84% 0.0 mm 0 W/m2
23:43 9.5 °C 6.9 °C 1001.7 hPa West 14.3 km/h 14.5 km/h 84% 0.0 mm 0 W/m2
23:48 9.5 °C 6.9 °C 1001.4 hPa NW 4.7 km/h 22.5 km/h 84% 0.0 mm 0 W/m2
23:53 9.5 °C 7.1 °C 1001.4 hPa WNW 7.9 km/h 14.5 km/h 85% 0.0 mm 0 W/m2
23:58 9.4 °C 7 °C 1001.4 hPa NW 4.7 km/h 22.5 km/h 85% 0.0 mm 0 W/m2
Juneau County Weather
Compliments of Weather Underground - 4 mb